createdAt,value
2022-09-27T00:01:44.773Z,10.47
2022-09-27T00:06:47.425Z,11.43
2022-09-27T00:11:50.477Z,11.90
2022-09-27T00:16:53.005Z,11.37
2022-09-27T00:21:56.427Z,10.77
2022-09-27T00:26:59.541Z,11.00
2022-09-27T00:32:02.359Z,10.63
2022-09-27T00:37:05.173Z,11.17
2022-09-27T00:42:12.605Z,11.30
2022-09-27T00:47:15.665Z,10.97
2022-09-27T00:52:27.738Z,11.87
2022-09-27T00:57:30.993Z,11.27
2022-09-27T01:02:34.010Z,10.97
2022-09-27T01:07:37.004Z,12.10
2022-09-27T01:12:42.714Z,11.20
2022-09-27T01:17:52.950Z,11.87
2022-09-27T01:23:14.442Z,13.27
2022-09-27T01:28:17.282Z,13.50
2022-09-27T01:33:34.870Z,13.33
2022-09-27T01:38:43.971Z,15.00
2022-09-27T01:43:59.333Z,14.63
2022-09-27T01:49:10.973Z,14.18
2022-09-27T01:54:16.326Z,13.50
2022-09-27T01:59:59.729Z,13.40
2022-09-27T02:05:23.881Z,13.05
2022-09-27T02:10:35.013Z,12.80
2022-09-27T02:15:49.971Z,12.82
2022-09-27T02:21:05.425Z,11.60
2022-09-27T02:26:08.310Z,11.93
2022-09-27T02:31:11.160Z,11.40
2022-09-27T02:36:15.330Z,10.98
2022-09-27T02:41:18.974Z,10.07
2022-09-27T02:46:33.905Z,10.43
2022-09-27T02:51:39.818Z,11.03
2022-09-27T02:57:00.720Z,11.32
2022-09-27T03:02:41.589Z,11.68
2022-09-27T03:08:03.754Z,13.30
2022-09-27T03:13:06.871Z,13.52
2022-09-27T03:18:09.764Z,13.57
2022-09-27T03:23:32.782Z,14.13
2022-09-27T03:28:36.133Z,14.20
2022-09-27T03:33:39.009Z,14.10
2022-09-27T03:38:44.541Z,14.13
2022-09-27T03:43:51.838Z,14.43
2022-09-27T03:48:54.689Z,15.65
2022-09-27T03:53:57.703Z,15.20
2022-09-27T03:59:00.189Z,15.13
2022-09-27T04:04:08.791Z,15.82
2022-09-27T04:09:14.515Z,14.75
2022-09-27T04:14:31.071Z,14.32
2022-09-27T04:19:56.760Z,14.30
2022-09-27T04:24:59.752Z,15.35
2022-09-27T04:30:12.187Z,16.08
2022-09-27T04:35:55.841Z,17.92
2022-09-27T04:41:02.232Z,18.33
2022-09-27T04:46:09.226Z,18.23
2022-09-27T04:51:11.916Z,18.25
2022-09-27T04:56:16.115Z,18.95
2022-09-27T05:01:19.237Z,19.40
2022-09-27T05:06:40.492Z,19.33
2022-09-27T05:11:53.428Z,19.17
2022-09-27T05:17:08.396Z,20.07
2022-09-27T05:22:40.424Z,19.60
2022-09-27T05:27:44.420Z,20.60
2022-09-27T05:32:50.239Z,21.70
2022-09-27T05:38:15.961Z,21.55
2022-09-27T05:43:24.193Z,21.30
2022-09-27T05:48:30.486Z,21.42
2022-09-27T05:53:42.689Z,20.90
2022-09-27T05:58:54.376Z,20.37
2022-09-27T06:04:00.738Z,32.10
2022-09-27T06:09:29.993Z,23.40
2022-09-27T06:14:35.392Z,24.48
2022-09-27T06:19:44.436Z,23.83
2022-09-27T06:24:48.154Z,24.43
2022-09-27T06:29:58.714Z,26.05
2022-09-27T06:35:19.917Z,25.75
2022-09-27T06:40:22.874Z,25.27
2022-09-27T06:45:25.532Z,27.00
2022-09-27T06:50:47.906Z,25.75
2022-09-27T06:55:51.447Z,28.52
2022-09-27T07:00:54.203Z,30.37
2022-09-27T07:06:37.636Z,34.60
2022-09-27T07:11:51.139Z,44.72
2022-09-27T07:16:53.941Z,38.85
2022-09-27T07:21:56.581Z,40.13
2022-09-27T07:27:00.100Z,38.40
2022-09-27T07:32:04.154Z,39.75
2022-09-27T07:37:07.114Z,34.77
2022-09-27T07:42:15.311Z,33.63
2022-09-27T07:47:24.255Z,33.70
2022-09-27T07:52:44.088Z,33.57
2022-09-27T07:58:08.935Z,31.73
2022-09-27T08:03:15.437Z,31.00
2022-09-27T08:08:17.947Z,28.80
2022-09-27T08:13:22.838Z,29.03
2022-09-27T08:18:28.010Z,28.73
2022-09-27T08:23:30.494Z,31.27
2022-09-27T08:29:05.342Z,31.60
2022-09-27T08:34:14.134Z,30.23
2022-09-27T08:39:17.025Z,30.07
2022-09-27T08:44:43.507Z,29.57
2022-09-27T08:49:51.894Z,30.60
2022-09-27T08:54:56.265Z,29.87
2022-09-27T09:00:12.064Z,29.93
2022-09-27T09:05:21.292Z,27.67
2022-09-27T09:10:51.615Z,28.80
2022-09-27T09:15:58.279Z,26.70
2022-09-27T09:21:17.608Z,27.75
2022-09-27T09:26:29.344Z,31.52
2022-09-27T09:31:44.065Z,33.13
2022-09-27T09:36:50.459Z,25.85
2022-09-27T09:41:59.184Z,27.33
2022-09-27T09:47:02.775Z,23.73
2022-09-27T09:52:14.232Z,22.30
2022-09-27T09:57:20.207Z,20.57
2022-09-27T10:02:24.569Z,21.07
2022-09-27T10:07:29.748Z,17.53
2022-09-27T10:12:33.873Z,27.70
2022-09-27T10:17:40.277Z,16.63
2022-09-27T10:22:47.872Z,16.03
2022-09-27T10:28:08.010Z,18.63
2022-09-27T10:33:19.289Z,18.52
2022-09-27T10:38:33.333Z,19.45
2022-09-27T10:43:51.745Z,18.80
2022-09-27T10:49:19.919Z,17.33
2022-09-27T10:54:27.754Z,17.73
2022-09-27T10:59:34.041Z,19.80
2022-09-27T11:04:37.861Z,18.77
2022-09-27T11:09:54.963Z,18.93
2022-09-27T11:15:02.563Z,19.00
2022-09-27T11:20:18.244Z,18.57
2022-09-27T11:25:40.366Z,22.47
2022-09-27T11:30:45.872Z,18.43
2022-09-27T11:36:21.122Z,16.97
2022-09-27T11:41:30.267Z,16.83
2022-09-27T11:46:41.149Z,15.20
2022-09-27T11:52:04.281Z,16.70
2022-09-27T11:57:23.807Z,17.50
2022-09-27T12:02:45.010Z,17.23
2022-09-27T12:07:59.926Z,16.60
2022-09-27T12:13:03.386Z,17.17
2022-09-27T12:18:09.577Z,16.03
2022-09-27T12:23:12.668Z,17.80
2022-09-27T12:28:37.297Z,18.90
2022-09-27T12:33:44.738Z,18.47
2022-09-27T12:38:52.305Z,18.60
2022-09-27T12:43:56.244Z,18.57
2022-09-27T12:49:21.991Z,20.07
2022-09-27T12:54:38.162Z,21.57
2022-09-27T12:59:56.378Z,20.90
2022-09-27T13:04:58.978Z,23.58
2022-09-27T13:10:03.429Z,21.13
2022-09-27T13:15:13.873Z,21.60
2022-09-27T13:20:35.170Z,20.23
2022-09-27T13:25:56.018Z,18.00
2022-09-27T13:31:52.956Z,17.73
2022-09-27T13:36:56.876Z,19.27
2022-09-27T13:42:05.115Z,20.90
2022-09-27T13:47:11.854Z,20.43
2022-09-27T13:52:22.241Z,22.67
2022-09-27T13:57:41.101Z,17.93
2022-09-27T14:02:52.129Z,18.23
2022-09-27T14:07:55.598Z,18.67
2022-09-27T14:13:01.220Z,19.07
2022-09-27T14:18:04.736Z,18.23
2022-09-27T14:23:16.028Z,17.80
2022-09-27T14:28:24.781Z,17.53
2022-09-27T14:34:05.890Z,16.30
2022-09-27T14:39:13.359Z,15.47
2022-09-27T14:44:17.720Z,19.50
2022-09-27T14:49:24.745Z,15.70
2022-09-27T14:54:30.677Z,15.90
2022-09-27T14:59:38.017Z,16.77
2022-09-27T15:04:44.005Z,21.97
2022-09-27T15:09:47.162Z,17.60
2022-09-27T15:14:53.969Z,17.10
2022-09-27T15:20:01.612Z,16.00
2022-09-27T15:25:06.163Z,17.87
2022-09-27T15:30:17.329Z,16.50
2022-09-27T15:35:22.715Z,22.57
2022-09-27T15:40:43.685Z,18.87
2022-09-27T15:45:50.190Z,17.30
2022-09-27T15:50:53.195Z,16.63
2022-09-27T15:55:55.697Z,22.17
2022-09-27T16:00:59.557Z,20.88
2022-09-27T16:06:03.302Z,19.25
2022-09-27T16:11:06.202Z,18.40
2022-09-27T16:16:19.894Z,18.70
2022-09-27T16:21:22.502Z,19.27
2022-09-27T16:26:25.071Z,19.05
2022-09-27T16:31:27.805Z,21.90
2022-09-27T16:36:30.523Z,19.50
2022-09-27T16:41:33.709Z,19.48
2022-09-27T16:46:36.687Z,20.52
2022-09-27T16:51:58.229Z,20.27
2022-09-27T16:57:01.136Z,20.58
2022-09-27T17:02:07.201Z,20.52
2022-09-27T17:07:10.048Z,21.20
2022-09-27T17:12:13.229Z,21.77
2022-09-27T17:17:15.903Z,20.80
2022-09-27T17:22:18.558Z,23.50
2022-09-27T17:27:25.731Z,22.85
2022-09-27T17:32:29.268Z,22.23
2022-09-27T17:37:32.291Z,21.73
2022-09-27T17:42:35.575Z,22.87
2022-09-27T17:47:56.809Z,23.98
2022-09-27T17:52:59.993Z,23.25
2022-09-27T17:58:04.221Z,24.48
2022-09-27T18:03:08.626Z,24.38
2022-09-27T18:08:11.319Z,24.60
2022-09-27T18:13:13.965Z,24.45
2022-09-27T18:18:17.583Z,25.88
2022-09-27T18:23:20.383Z,37.90
2022-09-27T18:28:30.183Z,26.60
2022-09-27T18:33:34.059Z,23.63
2022-09-27T18:38:39.500Z,25.70
2022-09-27T18:43:43.572Z,39.92
2022-09-27T18:48:46.606Z,45.70
2022-09-27T18:53:53.740Z,35.75
2022-09-27T18:58:57.125Z,190.93
2022-09-27T19:04:00.561Z,110.00
2022-09-27T19:09:05.106Z,79.27
2022-09-27T19:14:08.065Z,33.17
2022-09-27T19:19:10.601Z,31.58
2022-09-27T19:24:14.122Z,33.92
2022-09-27T19:29:19.620Z,44.45
2022-09-27T19:34:22.319Z,43.58
2022-09-27T19:39:24.882Z,31.70
2022-09-27T19:44:27.737Z,39.58
2022-09-27T19:49:30.914Z,31.67
2022-09-27T19:54:33.654Z,37.17
2022-09-27T19:59:36.150Z,43.25
2022-09-27T20:04:39.078Z,39.15
2022-09-27T20:09:42.230Z,28.00
2022-09-27T20:14:45.375Z,28.98
2022-09-27T20:19:47.918Z,27.60
2022-09-27T20:24:50.458Z,28.20
2022-09-27T20:29:53.283Z,30.83
2022-09-27T20:34:55.882Z,28.43
2022-09-27T20:39:58.923Z,32.92
2022-09-27T20:45:01.784Z,41.77
2022-09-27T20:50:04.852Z,30.52
2022-09-27T20:55:09.790Z,27.83
2022-09-27T21:00:12.573Z,27.77
2022-09-27T21:05:19.013Z,29.27
2022-09-27T21:10:21.578Z,27.90
2022-09-27T21:15:24.131Z,29.38
2022-09-27T21:20:26.830Z,27.67
2022-09-27T21:25:29.492Z,27.25
2022-09-27T21:30:32.304Z,27.53
2022-09-27T21:35:35.008Z,28.60
2022-09-27T21:40:37.722Z,26.67
2022-09-27T21:45:40.268Z,27.20
2022-09-27T21:50:42.879Z,27.43
2022-09-27T21:55:54.398Z,24.48
2022-09-27T22:00:57.162Z,25.90
2022-09-27T22:06:00.187Z,23.80
2022-09-27T22:11:05.189Z,23.80
2022-09-27T22:16:08.832Z,24.00
2022-09-27T22:21:12.259Z,25.73
2022-09-27T22:26:19.642Z,24.30
2022-09-27T22:31:24.953Z,23.92
2022-09-27T22:36:28.174Z,23.45
2022-09-27T22:41:30.820Z,23.70
2022-09-27T22:46:33.894Z,23.52
2022-09-27T22:51:36.573Z,22.45
2022-09-27T22:56:39.423Z,22.25
2022-09-27T23:01:42.096Z,21.63
2022-09-27T23:06:44.844Z,21.40
2022-09-27T23:11:47.358Z,20.20
2022-09-27T23:16:49.955Z,19.20
2022-09-27T23:21:52.687Z,18.20
2022-09-27T23:27:13.699Z,16.73
2022-09-27T23:32:16.736Z,14.90
2022-09-27T23:37:19.540Z,15.52
2022-09-27T23:42:22.033Z,13.00
2022-09-27T23:47:24.871Z,13.00
2022-09-27T23:52:27.667Z,11.60
2022-09-27T23:57:30.953Z,9.53
